sensor_id;sensor_type;location;lat;lon;timestamp;P1;durP1;ratioP1;P2;durP2;ratioP2
11151;SDS011;5630;49.342;10.802;2022-11-20T00:01:39;37.50;;;27.90;;
11151;SDS011;5630;49.342;10.802;2022-11-20T00:04:04;34.93;;;28.13;;
11151;SDS011;5630;49.342;10.802;2022-11-20T00:06:30;35.73;;;27.43;;
11151;SDS011;5630;49.342;10.802;2022-11-20T00:08:56;33.93;;;26.93;;
11151;SDS011;5630;49.342;10.802;2022-11-20T00:11:24;36.15;;;27.60;;
11151;SDS011;5630;49.342;10.802;2022-11-20T00:13:51;36.75;;;29.15;;
11151;SDS011;5630;49.342;10.802;2022-11-20T00:16:19;34.88;;;26.75;;
11151;SDS011;5630;49.342;10.802;2022-11-20T00:18:46;36.03;;;27.17;;
11151;SDS011;5630;49.342;10.802;2022-11-20T00:21:13;36.08;;;28.42;;
11151;SDS011;5630;49.342;10.802;2022-11-20T00:23:41;36.63;;;27.50;;
11151;SDS011;5630;49.342;10.802;2022-11-20T00:26:08;34.30;;;27.10;;
11151;SDS011;5630;49.342;10.802;2022-11-20T00:28:35;35.15;;;26.98;;
11151;SDS011;5630;49.342;10.802;2022-11-20T00:31:04;35.30;;;28.10;;
11151;SDS011;5630;49.342;10.802;2022-11-20T00:33:32;34.72;;;27.05;;
11151;SDS011;5630;49.342;10.802;2022-11-20T00:36:05;35.93;;;27.53;;
11151;SDS011;5630;49.342;10.802;2022-11-20T00:38:32;36.85;;;27.48;;
11151;SDS011;5630;49.342;10.802;2022-11-20T00:40:59;36.33;;;26.08;;
11151;SDS011;5630;49.342;10.802;2022-11-20T00:43:26;34.05;;;27.02;;
11151;SDS011;5630;49.342;10.802;2022-11-20T00:45:56;36.10;;;27.85;;
11151;SDS011;5630;49.342;10.802;2022-11-20T00:48:26;35.90;;;27.67;;
11151;SDS011;5630;49.342;10.802;2022-11-20T00:50:53;36.50;;;28.58;;
11151;SDS011;5630;49.342;10.802;2022-11-20T00:53:19;34.47;;;27.42;;
11151;SDS011;5630;49.342;10.802;2022-11-20T00:55:54;36.75;;;27.88;;
11151;SDS011;5630;49.342;10.802;2022-11-20T00:58:24;37.05;;;27.98;;
11151;SDS011;5630;49.342;10.802;2022-11-20T01:00:53;36.20;;;27.73;;
11151;SDS011;5630;49.342;10.802;2022-11-20T01:03:33;34.45;;;26.08;;
11151;SDS011;5630;49.342;10.802;2022-11-20T01:06:03;35.03;;;26.88;;
11151;SDS011;5630;49.342;10.802;2022-11-20T01:08:35;33.97;;;26.58;;
11151;SDS011;5630;49.342;10.802;2022-11-20T01:11:01;31.92;;;25.35;;
11151;SDS011;5630;49.342;10.802;2022-11-20T01:13:29;33.60;;;26.42;;
11151;SDS011;5630;49.342;10.802;2022-11-20T01:18:35;30.92;;;23.63;;
11151;SDS011;5630;49.342;10.802;2022-11-20T01:21:03;32.95;;;25.88;;
11151;SDS011;5630;49.342;10.802;2022-11-20T01:23:31;30.50;;;23.98;;
11151;SDS011;5630;49.342;10.802;2022-11-20T01:26:02;30.17;;;23.23;;
11151;SDS011;5630;49.342;10.802;2022-11-20T01:28:32;32.40;;;25.38;;
11151;SDS011;5630;49.342;10.802;2022-11-20T01:30:58;30.98;;;24.58;;
11151;SDS011;5630;49.342;10.802;2022-11-20T01:33:24;29.13;;;23.83;;
11151;SDS011;5630;49.342;10.802;2022-11-20T01:35:50;31.25;;;24.40;;
11151;SDS011;5630;49.342;10.802;2022-11-20T01:38:16;29.27;;;23.27;;
11151;SDS011;5630;49.342;10.802;2022-11-20T01:40:42;27.50;;;22.50;;
11151;SDS011;5630;49.342;10.802;2022-11-20T01:43:17;27.20;;;21.40;;
11151;SDS011;5630;49.342;10.802;2022-11-20T01:46:00;27.70;;;22.02;;
11151;SDS011;5630;49.342;10.802;2022-11-20T01:48:43;27.23;;;21.75;;
11151;SDS011;5630;49.342;10.802;2022-11-20T01:54:08;24.02;;;20.80;;
11151;SDS011;5630;49.342;10.802;2022-11-20T01:56:42;25.58;;;21.58;;
11151;SDS011;5630;49.342;10.802;2022-11-20T01:59:10;24.88;;;20.88;;
11151;SDS011;5630;49.342;10.802;2022-11-20T02:01:38;27.90;;;21.20;;
11151;SDS011;5630;49.342;10.802;2022-11-20T02:04:04;26.27;;;21.90;;
11151;SDS011;5630;49.342;10.802;2022-11-20T02:06:34;23.52;;;20.40;;
11151;SDS011;5630;49.342;10.802;2022-11-20T02:09:05;26.15;;;20.27;;
11151;SDS011;5630;49.342;10.802;2022-11-20T02:11:31;26.17;;;21.03;;
11151;SDS011;5630;49.342;10.802;2022-11-20T02:13:57;24.97;;;20.50;;
11151;SDS011;5630;49.342;10.802;2022-11-20T02:16:25;24.65;;;21.20;;
11151;SDS011;5630;49.342;10.802;2022-11-20T02:18:54;25.20;;;20.85;;
11151;SDS011;5630;49.342;10.802;2022-11-20T02:24:11;24.35;;;20.25;;
11151;SDS011;5630;49.342;10.802;2022-11-20T02:26:41;25.30;;;20.38;;
11151;SDS011;5630;49.342;10.802;2022-11-20T02:29:08;24.58;;;19.73;;
11151;SDS011;5630;49.342;10.802;2022-11-20T02:31:35;23.57;;;19.43;;
11151;SDS011;5630;49.342;10.802;2022-11-20T02:34:06;24.00;;;19.15;;
11151;SDS011;5630;49.342;10.802;2022-11-20T02:36:32;24.53;;;19.57;;
11151;SDS011;5630;49.342;10.802;2022-11-20T02:39:00;20.95;;;18.48;;
11151;SDS011;5630;49.342;10.802;2022-11-20T02:41:33;21.35;;;18.17;;
11151;SDS011;5630;49.342;10.802;2022-11-20T02:44:02;19.95;;;17.13;;
11151;SDS011;5630;49.342;10.802;2022-11-20T02:46:29;22.55;;;17.33;;
11151;SDS011;5630;49.342;10.802;2022-11-20T02:48:55;20.92;;;16.75;;
11151;SDS011;5630;49.342;10.802;2022-11-20T02:51:21;21.37;;;16.33;;
11151;SDS011;5630;49.342;10.802;2022-11-20T02:53:47;19.63;;;16.45;;
11151;SDS011;5630;49.342;10.802;2022-11-20T02:56:13;20.33;;;16.50;;
11151;SDS011;5630;49.342;10.802;2022-11-20T02:58:38;18.93;;;16.53;;
11151;SDS011;5630;49.342;10.802;2022-11-20T03:01:04;18.53;;;16.43;;
11151;SDS011;5630;49.342;10.802;2022-11-20T03:03:30;18.70;;;15.50;;
11151;SDS011;5630;49.342;10.802;2022-11-20T03:05:55;19.73;;;16.70;;
11151;SDS011;5630;49.342;10.802;2022-11-20T03:08:23;18.17;;;15.30;;
11151;SDS011;5630;49.342;10.802;2022-11-20T03:10:48;18.43;;;15.00;;
11151;SDS011;5630;49.342;10.802;2022-11-20T03:13:14;18.77;;;15.83;;
11151;SDS011;5630;49.342;10.802;2022-11-20T03:15:40;18.23;;;15.50;;
11151;SDS011;5630;49.342;10.802;2022-11-20T03:18:05;19.67;;;15.87;;
11151;SDS011;5630;49.342;10.802;2022-11-20T03:20:32;17.77;;;15.70;;
11151;SDS011;5630;49.342;10.802;2022-11-20T03:22:58;19.30;;;16.25;;
11151;SDS011;5630;49.342;10.802;2022-11-20T03:25:24;18.03;;;15.47;;
11151;SDS011;5630;49.342;10.802;2022-11-20T03:27:50;17.40;;;15.23;;
11151;SDS011;5630;49.342;10.802;2022-11-20T03:30:16;17.63;;;14.93;;
11151;SDS011;5630;49.342;10.802;2022-11-20T03:32:41;16.77;;;14.47;;
11151;SDS011;5630;49.342;10.802;2022-11-20T03:35:07;17.70;;;14.87;;
11151;SDS011;5630;49.342;10.802;2022-11-20T03:37:33;18.63;;;15.32;;
11151;SDS011;5630;49.342;10.802;2022-11-20T03:39:59;16.90;;;14.33;;
11151;SDS011;5630;49.342;10.802;2022-11-20T03:42:24;17.63;;;14.97;;
11151;SDS011;5630;49.342;10.802;2022-11-20T03:45:09;16.75;;;14.65;;
11151;SDS011;5630;49.342;10.802;2022-11-20T03:47:34;17.97;;;15.33;;
11151;SDS011;5630;49.342;10.802;2022-11-20T03:50:00;18.83;;;15.47;;
11151;SDS011;5630;49.342;10.802;2022-11-20T03:52:25;18.43;;;15.63;;
11151;SDS011;5630;49.342;10.802;2022-11-20T03:54:51;17.23;;;14.97;;
11151;SDS011;5630;49.342;10.802;2022-11-20T03:57:16;20.73;;;15.87;;
11151;SDS011;5630;49.342;10.802;2022-11-20T03:59:42;18.17;;;15.37;;
11151;SDS011;5630;49.342;10.802;2022-11-20T04:02:07;18.67;;;15.87;;
11151;SDS011;5630;49.342;10.802;2022-11-20T04:04:33;17.00;;;14.50;;
11151;SDS011;5630;49.342;10.802;2022-11-20T04:06:58;18.27;;;15.23;;
11151;SDS011;5630;49.342;10.802;2022-11-20T04:09:24;17.43;;;15.20;;
11151;SDS011;5630;49.342;10.802;2022-11-20T04:11:50;16.47;;;14.57;;
11151;SDS011;5630;49.342;10.802;2022-11-20T04:14:15;19.20;;;15.80;;
11151;SDS011;5630;49.342;10.802;2022-11-20T04:16:42;19.73;;;15.63;;
11151;SDS011;5630;49.342;10.802;2022-11-20T04:19:12;18.08;;;15.43;;
11151;SDS011;5630;49.342;10.802;2022-11-20T04:21:39;17.80;;;15.20;;
11151;SDS011;5630;49.342;10.802;2022-11-20T04:24:05;18.87;;;16.03;;
11151;SDS011;5630;49.342;10.802;2022-11-20T04:26:31;19.45;;;16.17;;
11151;SDS011;5630;49.342;10.802;2022-11-20T04:28:57;19.67;;;16.40;;
11151;SDS011;5630;49.342;10.802;2022-11-20T04:31:24;19.07;;;15.53;;
11151;SDS011;5630;49.342;10.802;2022-11-20T04:33:52;17.20;;;15.07;;
11151;SDS011;5630;49.342;10.802;2022-11-20T04:36:18;19.30;;;15.87;;
11151;SDS011;5630;49.342;10.802;2022-11-20T04:38:45;18.70;;;15.52;;
11151;SDS011;5630;49.342;10.802;2022-11-20T04:41:15;20.00;;;15.57;;
11151;SDS011;5630;49.342;10.802;2022-11-20T04:43:45;19.73;;;15.75;;
11151;SDS011;5630;49.342;10.802;2022-11-20T04:46:15;20.48;;;16.75;;
11151;SDS011;5630;49.342;10.802;2022-11-20T04:48:45;19.27;;;15.57;;
11151;SDS011;5630;49.342;10.802;2022-11-20T04:51:11;19.88;;;16.20;;
11151;SDS011;5630;49.342;10.802;2022-11-20T04:53:37;18.00;;;15.70;;
11151;SDS011;5630;49.342;10.802;2022-11-20T04:56:04;19.57;;;16.03;;
11151;SDS011;5630;49.342;10.802;2022-11-20T04:58:31;18.95;;;16.08;;
11151;SDS011;5630;49.342;10.802;2022-11-20T05:03:53;20.65;;;16.70;;
11151;SDS011;5630;49.342;10.802;2022-11-20T05:06:19;19.27;;;15.73;;
11151;SDS011;5630;49.342;10.802;2022-11-20T05:08:45;20.55;;;16.15;;
11151;SDS011;5630;49.342;10.802;2022-11-20T05:11:12;20.30;;;16.92;;
11151;SDS011;5630;49.342;10.802;2022-11-20T05:13:42;22.13;;;17.17;;
11151;SDS011;5630;49.342;10.802;2022-11-20T05:16:12;20.33;;;16.43;;
11151;SDS011;5630;49.342;10.802;2022-11-20T05:18:39;21.00;;;16.80;;
11151;SDS011;5630;49.342;10.802;2022-11-20T05:21:06;18.80;;;16.23;;
11151;SDS011;5630;49.342;10.802;2022-11-20T05:23:32;24.77;;;17.08;;
11151;SDS011;5630;49.342;10.802;2022-11-20T05:25:58;21.23;;;16.48;;
11151;SDS011;5630;49.342;10.802;2022-11-20T05:28:25;20.85;;;16.73;;
11151;SDS011;5630;49.342;10.802;2022-11-20T05:30:51;20.00;;;15.90;;
11151;SDS011;5630;49.342;10.802;2022-11-20T05:33:16;24.00;;;16.83;;
11151;SDS011;5630;49.342;10.802;2022-11-20T05:35:42;20.30;;;15.93;;
11151;SDS011;5630;49.342;10.802;2022-11-20T05:38:08;21.20;;;16.67;;
11151;SDS011;5630;49.342;10.802;2022-11-20T05:40:34;20.67;;;16.10;;
11151;SDS011;5630;49.342;10.802;2022-11-20T05:42:59;19.70;;;14.90;;
11151;SDS011;5630;49.342;10.802;2022-11-20T05:45:25;19.20;;;15.30;;
11151;SDS011;5630;49.342;10.802;2022-11-20T05:47:51;19.43;;;15.33;;
11151;SDS011;5630;49.342;10.802;2022-11-20T05:50:16;20.90;;;15.00;;
11151;SDS011;5630;49.342;10.802;2022-11-20T05:52:42;20.57;;;16.30;;
11151;SDS011;5630;49.342;10.802;2022-11-20T05:55:08;22.07;;;17.03;;
11151;SDS011;5630;49.342;10.802;2022-11-20T05:57:33;23.05;;;17.08;;
11151;SDS011;5630;49.342;10.802;2022-11-20T05:59:59;24.83;;;16.53;;
11151;SDS011;5630;49.342;10.802;2022-11-20T06:02:25;20.13;;;15.73;;
11151;SDS011;5630;49.342;10.802;2022-11-20T06:04:50;35.00;;;14.60;;
11151;SDS011;5630;49.342;10.802;2022-11-20T06:07:16;17.93;;;14.83;;
11151;SDS011;5630;49.342;10.802;2022-11-20T06:09:42;19.67;;;15.10;;
11151;SDS011;5630;49.342;10.802;2022-11-20T06:12:07;17.60;;;14.73;;
11151;SDS011;5630;49.342;10.802;2022-11-20T06:14:33;20.13;;;15.53;;
11151;SDS011;5630;49.342;10.802;2022-11-20T06:16:58;21.40;;;14.17;;
11151;SDS011;5630;49.342;10.802;2022-11-20T06:19:24;20.53;;;14.60;;
11151;SDS011;5630;49.342;10.802;2022-11-20T06:21:50;17.67;;;13.93;;
11151;SDS011;5630;49.342;10.802;2022-11-20T06:24:16;18.23;;;13.80;;
11151;SDS011;5630;49.342;10.802;2022-11-20T06:26:42;17.65;;;13.02;;
11151;SDS011;5630;49.342;10.802;2022-11-20T06:29:07;19.20;;;13.00;;
11151;SDS011;5630;49.342;10.802;2022-11-20T06:31:33;16.77;;;12.87;;
11151;SDS011;5630;49.342;10.802;2022-11-20T06:34:00;16.33;;;12.50;;
11151;SDS011;5630;49.342;10.802;2022-11-20T06:36:26;16.50;;;12.48;;
11151;SDS011;5630;49.342;10.802;2022-11-20T06:38:51;15.97;;;12.77;;
11151;SDS011;5630;49.342;10.802;2022-11-20T06:41:19;18.17;;;13.40;;
11151;SDS011;5630;49.342;10.802;2022-11-20T06:43:46;17.38;;;13.45;;
11151;SDS011;5630;49.342;10.802;2022-11-20T06:46:13;16.38;;;12.25;;
11151;SDS011;5630;49.342;10.802;2022-11-20T06:48:40;15.07;;;12.13;;
11151;SDS011;5630;49.342;10.802;2022-11-20T06:51:06;15.25;;;12.00;;
11151;SDS011;5630;49.342;10.802;2022-11-20T06:53:32;14.70;;;12.15;;
11151;SDS011;5630;49.342;10.802;2022-11-20T06:55:58;15.95;;;11.90;;
11151;SDS011;5630;49.342;10.802;2022-11-20T06:58:28;14.60;;;11.80;;
11151;SDS011;5630;49.342;10.802;2022-11-20T07:00:58;15.23;;;11.93;;
11151;SDS011;5630;49.342;10.802;2022-11-20T07:03:24;14.75;;;11.63;;
11151;SDS011;5630;49.342;10.802;2022-11-20T07:05:50;17.80;;;11.23;;
11151;SDS011;5630;49.342;10.802;2022-11-20T07:08:15;19.07;;;12.37;;
11151;SDS011;5630;49.342;10.802;2022-11-20T07:10:41;25.03;;;15.83;;
11151;SDS011;5630;49.342;10.802;2022-11-20T07:13:07;21.67;;;15.43;;
11151;SDS011;5630;49.342;10.802;2022-11-20T07:15:33;18.23;;;14.07;;
11151;SDS011;5630;49.342;10.802;2022-11-20T07:17:59;16.93;;;12.30;;
11151;SDS011;5630;49.342;10.802;2022-11-20T07:20:25;16.67;;;13.40;;
11151;SDS011;5630;49.342;10.802;2022-11-20T07:22:54;18.60;;;14.23;;
11151;SDS011;5630;49.342;10.802;2022-11-20T07:25:20;16.90;;;14.43;;
11151;SDS011;5630;49.342;10.802;2022-11-20T07:27:46;15.10;;;12.30;;
11151;SDS011;5630;49.342;10.802;2022-11-20T07:30:12;14.87;;;12.03;;
11151;SDS011;5630;49.342;10.802;2022-11-20T07:32:38;15.53;;;12.10;;
11151;SDS011;5630;49.342;10.802;2022-11-20T07:35:04;14.77;;;12.23;;
11151;SDS011;5630;49.342;10.802;2022-11-20T07:37:30;18.93;;;15.53;;
11151;SDS011;5630;49.342;10.802;2022-11-20T07:39:58;16.87;;;13.57;;
11151;SDS011;5630;49.342;10.802;2022-11-20T07:42:24;19.57;;;15.80;;
11151;SDS011;5630;49.342;10.802;2022-11-20T07:44:49;20.70;;;15.43;;
11151;SDS011;5630;49.342;10.802;2022-11-20T07:47:15;18.77;;;14.97;;
11151;SDS011;5630;49.342;10.802;2022-11-20T07:49:40;21.40;;;15.93;;
11151;SDS011;5630;49.342;10.802;2022-11-20T07:52:06;22.70;;;15.83;;
11151;SDS011;5630;49.342;10.802;2022-11-20T07:54:32;30.37;;;20.37;;
11151;SDS011;5630;49.342;10.802;2022-11-20T07:56:57;35.40;;;21.57;;
11151;SDS011;5630;49.342;10.802;2022-11-20T07:59:23;26.97;;;17.70;;
11151;SDS011;5630;49.342;10.802;2022-11-20T08:01:49;18.57;;;13.87;;
11151;SDS011;5630;49.342;10.802;2022-11-20T08:04:14;17.57;;;13.17;;
11151;SDS011;5630;49.342;10.802;2022-11-20T08:06:41;15.63;;;12.27;;
11151;SDS011;5630;49.342;10.802;2022-11-20T08:09:07;15.47;;;12.20;;
11151;SDS011;5630;49.342;10.802;2022-11-20T08:11:33;16.90;;;13.67;;
11151;SDS011;5630;49.342;10.802;2022-11-20T08:14:17;17.23;;;12.57;;
11151;SDS011;5630;49.342;10.802;2022-11-20T08:16:46;12.50;;;9.13;;
11151;SDS011;5630;49.342;10.802;2022-11-20T08:19:13;14.67;;;11.07;;
11151;SDS011;5630;49.342;10.802;2022-11-20T08:21:40;13.43;;;10.07;;
11151;SDS011;5630;49.342;10.802;2022-11-20T08:24:06;18.53;;;10.90;;
11151;SDS011;5630;49.342;10.802;2022-11-20T08:26:33;13.73;;;10.40;;
11151;SDS011;5630;49.342;10.802;2022-11-20T08:29:00;16.27;;;13.10;;
11151;SDS011;5630;49.342;10.802;2022-11-20T08:31:26;14.67;;;10.60;;
11151;SDS011;5630;49.342;10.802;2022-11-20T08:33:52;10.23;;;9.13;;
11151;SDS011;5630;49.342;10.802;2022-11-20T08:36:19;9.83;;;8.30;;
11151;SDS011;5630;49.342;10.802;2022-11-20T08:38:49;12.00;;;8.57;;
11151;SDS011;5630;49.342;10.802;2022-11-20T08:41:16;10.33;;;8.27;;
11151;SDS011;5630;49.342;10.802;2022-11-20T08:43:57;9.00;;;7.07;;
11151;SDS011;5630;49.342;10.802;2022-11-20T08:46:30;12.13;;;7.10;;
11151;SDS011;5630;49.342;10.802;2022-11-20T08:49:04;8.47;;;7.00;;
11151;SDS011;5630;49.342;10.802;2022-11-20T08:51:31;9.70;;;6.33;;
11151;SDS011;5630;49.342;10.802;2022-11-20T08:53:57;7.70;;;5.90;;
11151;SDS011;5630;49.342;10.802;2022-11-20T08:56:22;6.23;;;5.63;;
11151;SDS011;5630;49.342;10.802;2022-11-20T08:58:49;7.70;;;5.23;;
11151;SDS011;5630;49.342;10.802;2022-11-20T09:01:16;6.47;;;5.60;;
11151;SDS011;5630;49.342;10.802;2022-11-20T09:03:42;6.73;;;5.07;;
11151;SDS011;5630;49.342;10.802;2022-11-20T09:06:07;7.10;;;4.80;;
11151;SDS011;5630;49.342;10.802;2022-11-20T09:08:33;7.30;;;4.73;;
11151;SDS011;5630;49.342;10.802;2022-11-20T09:11:01;7.33;;;4.70;;
11151;SDS011;5630;49.342;10.802;2022-11-20T09:13:27;4.03;;;3.13;;
11151;SDS011;5630;49.342;10.802;2022-11-20T09:15:58;3.40;;;3.10;;
11151;SDS011;5630;49.342;10.802;2022-11-20T09:18:25;2.50;;;2.20;;
11151;SDS011;5630;49.342;10.802;2022-11-20T09:20:56;2.70;;;2.43;;
11151;SDS011;5630;49.342;10.802;2022-11-20T09:23:22;3.50;;;2.80;;
11151;SDS011;5630;49.342;10.802;2022-11-20T09:25:48;5.63;;;3.07;;
11151;SDS011;5630;49.342;10.802;2022-11-20T09:28:13;3.87;;;2.90;;
11151;SDS011;5630;49.342;10.802;2022-11-20T09:30:39;4.33;;;2.80;;
11151;SDS011;5630;49.342;10.802;2022-11-20T09:33:05;4.53;;;3.23;;
11151;SDS011;5630;49.342;10.802;2022-11-20T09:35:31;3.93;;;2.50;;
11151;SDS011;5630;49.342;10.802;2022-11-20T09:37:57;5.17;;;2.53;;
11151;SDS011;5630;49.342;10.802;2022-11-20T09:40:24;3.33;;;2.63;;
11151;SDS011;5630;49.342;10.802;2022-11-20T09:45:56;4.40;;;3.00;;
11151;SDS011;5630;49.342;10.802;2022-11-20T09:48:44;4.73;;;2.97;;
11151;SDS011;5630;49.342;10.802;2022-11-20T09:51:31;3.40;;;2.80;;
11151;SDS011;5630;49.342;10.802;2022-11-20T09:54:15;5.30;;;3.37;;
11151;SDS011;5630;49.342;10.802;2022-11-20T09:56:42;4.30;;;3.40;;
11151;SDS011;5630;49.342;10.802;2022-11-20T09:59:15;5.10;;;3.33;;
11151;SDS011;5630;49.342;10.802;2022-11-20T10:02:00;6.40;;;3.57;;
11151;SDS011;5630;49.342;10.802;2022-11-20T10:04:28;5.27;;;4.10;;
11151;SDS011;5630;49.342;10.802;2022-11-20T10:07:00;64.27;;;55.97;;
11151;SDS011;5630;49.342;10.802;2022-11-20T10:09:40;7.10;;;6.37;;
11151;SDS011;5630;49.342;10.802;2022-11-20T10:12:19;8.37;;;6.67;;
11151;SDS011;5630;49.342;10.802;2022-11-20T10:15:06;9.67;;;8.67;;
11151;SDS011;5630;49.342;10.802;2022-11-20T10:20:46;6.03;;;4.50;;
11151;SDS011;5630;49.342;10.802;2022-11-20T10:26:04;6.40;;;5.60;;
11151;SDS011;5630;49.342;10.802;2022-11-20T10:28:46;5.57;;;5.07;;
11151;SDS011;5630;49.342;10.802;2022-11-20T10:34:19;6.30;;;5.53;;
11151;SDS011;5630;49.342;10.802;2022-11-20T10:36:55;5.77;;;5.27;;
11151;SDS011;5630;49.342;10.802;2022-11-20T10:39:31;6.57;;;5.33;;
11151;SDS011;5630;49.342;10.802;2022-11-20T10:42:00;4.73;;;3.90;;
11151;SDS011;5630;49.342;10.802;2022-11-20T10:44:27;6.17;;;5.57;;
11151;SDS011;5630;49.342;10.802;2022-11-20T10:47:16;6.50;;;5.90;;
11151;SDS011;5630;49.342;10.802;2022-11-20T10:49:43;7.20;;;5.17;;
11151;SDS011;5630;49.342;10.802;2022-11-20T10:52:18;5.50;;;4.80;;
11151;SDS011;5630;49.342;10.802;2022-11-20T10:58:10;4.30;;;3.60;;
11151;SDS011;5630;49.342;10.802;2022-11-20T11:00:40;7.17;;;4.43;;
11151;SDS011;5630;49.342;10.802;2022-11-20T11:08:35;6.67;;;5.30;;
11151;SDS011;5630;49.342;10.802;2022-11-20T11:13:49;7.00;;;5.10;;
11151;SDS011;5630;49.342;10.802;2022-11-20T11:16:22;8.27;;;6.43;;
11151;SDS011;5630;49.342;10.802;2022-11-20T11:18:49;6.80;;;4.50;;
11151;SDS011;5630;49.342;10.802;2022-11-20T11:21:24;6.40;;;5.80;;
11151;SDS011;5630;49.342;10.802;2022-11-20T11:24:03;5.63;;;4.47;;
11151;SDS011;5630;49.342;10.802;2022-11-20T11:26:29;6.40;;;5.43;;
11151;SDS011;5630;49.342;10.802;2022-11-20T11:28:59;5.27;;;4.77;;
11151;SDS011;5630;49.342;10.802;2022-11-20T11:31:30;6.37;;;5.10;;
11151;SDS011;5630;49.342;10.802;2022-11-20T11:34:04;5.83;;;5.33;;
11151;SDS011;5630;49.342;10.802;2022-11-20T11:36:30;6.53;;;5.93;;
11151;SDS011;5630;49.342;10.802;2022-11-20T11:38:58;8.33;;;5.67;;
11151;SDS011;5630;49.342;10.802;2022-11-20T11:41:24;5.70;;;4.77;;
11151;SDS011;5630;49.342;10.802;2022-11-20T11:43:54;5.13;;;4.10;;
11151;SDS011;5630;49.342;10.802;2022-11-20T11:46:54;3.30;;;2.83;;
11151;SDS011;5630;49.342;10.802;2022-11-20T11:49:21;6.87;;;3.63;;
11151;SDS011;5630;49.342;10.802;2022-11-20T11:52:02;6.37;;;4.00;;
11151;SDS011;5630;49.342;10.802;2022-11-20T11:54:45;7.77;;;6.50;;
11151;SDS011;5630;49.342;10.802;2022-11-20T12:00:10;7.50;;;4.90;;
11151;SDS011;5630;49.342;10.802;2022-11-20T12:10:59;4.37;;;3.97;;
11151;SDS011;5630;49.342;10.802;2022-11-20T12:16:38;5.53;;;4.53;;
11151;SDS011;5630;49.342;10.802;2022-11-20T12:19:11;4.43;;;3.30;;
11151;SDS011;5630;49.342;10.802;2022-11-20T12:27:51;6.93;;;4.90;;
11151;SDS011;5630;49.342;10.802;2022-11-20T12:30:23;8.87;;;5.90;;
11151;SDS011;5630;49.342;10.802;2022-11-20T12:33:24;6.60;;;4.43;;
11151;SDS011;5630;49.342;10.802;2022-11-20T12:43:39;9.33;;;6.93;;
11151;SDS011;5630;49.342;10.802;2022-11-20T12:46:38;5.20;;;4.70;;
11151;SDS011;5630;49.342;10.802;2022-11-20T12:54:34;16.90;;;12.50;;
11151;SDS011;5630;49.342;10.802;2022-11-20T13:07:42;6.77;;;5.67;;
11151;SDS011;5630;49.342;10.802;2022-11-20T13:10:18;7.23;;;6.53;;
11151;SDS011;5630;49.342;10.802;2022-11-20T13:12:45;7.23;;;5.77;;
11151;SDS011;5630;49.342;10.802;2022-11-20T13:15:34;8.03;;;6.33;;
11151;SDS011;5630;49.342;10.802;2022-11-20T13:18:15;5.83;;;4.77;;
11151;SDS011;5630;49.342;10.802;2022-11-20T13:20:43;4.73;;;4.23;;
11151;SDS011;5630;49.342;10.802;2022-11-20T13:23:09;5.57;;;4.27;;
11151;SDS011;5630;49.342;10.802;2022-11-20T13:25:36;5.70;;;4.90;;
11151;SDS011;5630;49.342;10.802;2022-11-20T13:28:04;6.30;;;4.97;;
11151;SDS011;5630;49.342;10.802;2022-11-20T13:30:50;5.90;;;5.17;;
11151;SDS011;5630;49.342;10.802;2022-11-20T13:33:30;8.33;;;6.37;;
11151;SDS011;5630;49.342;10.802;2022-11-20T13:36:06;8.37;;;5.87;;
11151;SDS011;5630;49.342;10.802;2022-11-20T13:38:48;8.43;;;6.77;;
11151;SDS011;5630;49.342;10.802;2022-11-20T13:44:21;15.33;;;10.30;;
11151;SDS011;5630;49.342;10.802;2022-11-20T13:46:48;9.63;;;8.37;;
11151;SDS011;5630;49.342;10.802;2022-11-20T13:49:33;10.87;;;8.57;;
11151;SDS011;5630;49.342;10.802;2022-11-20T13:58:24;12.50;;;8.53;;
11151;SDS011;5630;49.342;10.802;2022-11-20T14:01:19;11.90;;;8.90;;
11151;SDS011;5630;49.342;10.802;2022-11-20T14:03:47;9.37;;;8.40;;
11151;SDS011;5630;49.342;10.802;2022-11-20T14:06:15;11.40;;;9.23;;
11151;SDS011;5630;49.342;10.802;2022-11-20T14:08:57;9.60;;;7.20;;
11151;SDS011;5630;49.342;10.802;2022-11-20T14:11:24;8.13;;;6.50;;
11151;SDS011;5630;49.342;10.802;2022-11-20T14:13:52;6.80;;;6.10;;
11151;SDS011;5630;49.342;10.802;2022-11-20T14:16:24;7.67;;;6.60;;
11151;SDS011;5630;49.342;10.802;2022-11-20T14:18:52;6.70;;;6.10;;
11151;SDS011;5630;49.342;10.802;2022-11-20T14:21:22;8.00;;;7.20;;
11151;SDS011;5630;49.342;10.802;2022-11-20T14:23:51;7.17;;;6.33;;
11151;SDS011;5630;49.342;10.802;2022-11-20T14:26:18;7.50;;;6.70;;
11151;SDS011;5630;49.342;10.802;2022-11-20T14:28:47;8.37;;;6.70;;
11151;SDS011;5630;49.342;10.802;2022-11-20T14:31:21;7.83;;;6.77;;
11151;SDS011;5630;49.342;10.802;2022-11-20T14:33:54;6.23;;;5.63;;
11151;SDS011;5630;49.342;10.802;2022-11-20T14:36:22;5.07;;;4.50;;
11151;SDS011;5630;49.342;10.802;2022-11-20T14:38:50;22.93;;;16.00;;
11151;SDS011;5630;49.342;10.802;2022-11-20T14:41:23;7.23;;;5.77;;
11151;SDS011;5630;49.342;10.802;2022-11-20T14:43:54;7.27;;;6.50;;
11151;SDS011;5630;49.342;10.802;2022-11-20T14:46:22;5.27;;;3.43;;
11151;SDS011;5630;49.342;10.802;2022-11-20T14:48:53;12.03;;;10.73;;
11151;SDS011;5630;49.342;10.802;2022-11-20T14:51:28;12.67;;;9.37;;
11151;SDS011;5630;49.342;10.802;2022-11-20T14:53:56;5.87;;;5.27;;
11151;SDS011;5630;49.342;10.802;2022-11-20T14:56:33;3.83;;;3.03;;
11151;SDS011;5630;49.342;10.802;2022-11-20T14:58:59;5.70;;;3.80;;
11151;SDS011;5630;49.342;10.802;2022-11-20T15:01:28;4.30;;;2.97;;
11151;SDS011;5630;49.342;10.802;2022-11-20T15:04:10;5.20;;;4.07;;
11151;SDS011;5630;49.342;10.802;2022-11-20T15:06:36;6.77;;;5.50;;
11151;SDS011;5630;49.342;10.802;2022-11-20T15:09:03;7.10;;;5.80;;
11151;SDS011;5630;49.342;10.802;2022-11-20T15:11:33;6.87;;;6.17;;
11151;SDS011;5630;49.342;10.802;2022-11-20T15:14:04;7.83;;;6.20;;
11151;SDS011;5630;49.342;10.802;2022-11-20T15:16:31;7.40;;;6.03;;
11151;SDS011;5630;49.342;10.802;2022-11-20T15:18:57;5.83;;;5.03;;
11151;SDS011;5630;49.342;10.802;2022-11-20T15:21:24;7.20;;;6.17;;
11151;SDS011;5630;49.342;10.802;2022-11-20T15:23:50;6.47;;;4.63;;
11151;SDS011;5630;49.342;10.802;2022-11-20T15:26:33;10.17;;;6.40;;
11151;SDS011;5630;49.342;10.802;2022-11-20T15:29:01;6.37;;;4.20;;
11151;SDS011;5630;49.342;10.802;2022-11-20T15:31:27;13.77;;;9.27;;
11151;SDS011;5630;49.342;10.802;2022-11-20T15:33:53;37.90;;;27.77;;
11151;SDS011;5630;49.342;10.802;2022-11-20T15:36:18;75.73;;;45.17;;
11151;SDS011;5630;49.342;10.802;2022-11-20T15:38:44;32.30;;;22.30;;
11151;SDS011;5630;49.342;10.802;2022-11-20T15:41:09;13.10;;;8.63;;
11151;SDS011;5630;49.342;10.802;2022-11-20T15:43:35;8.10;;;5.70;;
11151;SDS011;5630;49.342;10.802;2022-11-20T15:46:14;7.90;;;5.77;;
11151;SDS011;5630;49.342;10.802;2022-11-20T15:48:45;11.80;;;8.70;;
11151;SDS011;5630;49.342;10.802;2022-11-20T15:53:42;11.73;;;8.60;;
11151;SDS011;5630;49.342;10.802;2022-11-20T15:56:11;10.30;;;6.90;;
11151;SDS011;5630;49.342;10.802;2022-11-20T15:58:38;8.03;;;6.27;;
11151;SDS011;5630;49.342;10.802;2022-11-20T16:01:05;7.97;;;6.70;;
11151;SDS011;5630;49.342;10.802;2022-11-20T16:03:30;19.90;;;14.30;;
11151;SDS011;5630;49.342;10.802;2022-11-20T16:05:56;16.47;;;13.40;;
11151;SDS011;5630;49.342;10.802;2022-11-20T16:08:21;17.50;;;11.80;;
11151;SDS011;5630;49.342;10.802;2022-11-20T16:10:47;13.67;;;10.40;;
11151;SDS011;5630;49.342;10.802;2022-11-20T16:13:13;11.83;;;9.30;;